sensor_id;sensor_type;location;lat;lon;timestamp;temperature;humidity
64689;DHT22;62504;46.070;14.492;2023-08-07T00:00:31;15.40;99.90
64689;DHT22;62504;46.070;14.492;2023-08-07T00:02:57;15.40;99.90
64689;DHT22;62504;46.070;14.492;2023-08-07T00:05:23;15.30;99.90
64689;DHT22;62504;46.070;14.492;2023-08-07T00:07:49;15.30;99.90
64689;DHT22;62504;46.070;14.492;2023-08-07T00:10:14;15.30;99.90
64689;DHT22;62504;46.070;14.492;2023-08-07T00:12:40;15.20;99.90
64689;DHT22;62504;46.070;14.492;2023-08-07T00:15:06;15.10;99.90
64689;DHT22;62504;46.070;14.492;2023-08-07T00:17:32;15.20;99.90
64689;DHT22;62504;46.070;14.492;2023-08-07T00:19:58;15.20;99.90
64689;DHT22;62504;46.070;14.492;2023-08-07T00:22:24;15.30;99.90
64689;DHT22;62504;46.070;14.492;2023-08-07T00:24:50;15.50;99.90
64689;DHT22;62504;46.070;14.492;2023-08-07T00:27:16;15.50;99.90
64689;DHT22;62504;46.070;14.492;2023-08-07T00:29:42;15.30;99.90
64689;DHT22;62504;46.070;14.492;2023-08-07T00:32:07;15.20;99.90
64689;DHT22;62504;46.070;14.492;2023-08-07T00:34:34;15.30;99.90
64689;DHT22;62504;46.070;14.492;2023-08-07T00:36:59;15.40;99.90
64689;DHT22;62504;46.070;14.492;2023-08-07T00:39:25;15.50;99.90
64689;DHT22;62504;46.070;14.492;2023-08-07T00:41:51;15.40;99.90
64689;DHT22;62504;46.070;14.492;2023-08-07T00:44:17;15.40;99.90
64689;DHT22;62504;46.070;14.492;2023-08-07T00:46:42;15.50;99.90
64689;DHT22;62504;46.070;14.492;2023-08-07T00:49:09;15.40;99.90
64689;DHT22;62504;46.070;14.492;2023-08-07T00:51:38;15.30;99.90
64689;DHT22;62504;46.070;14.492;2023-08-07T00:54:04;15.30;99.90
64689;DHT22;62504;46.070;14.492;2023-08-07T00:56:31;15.10;99.90
64689;DHT22;62504;46.070;14.492;2023-08-07T00:58:58;15.00;99.90
64689;DHT22;62504;46.070;14.492;2023-08-07T01:01:25;15.00;99.90
64689;DHT22;62504;46.070;14.492;2023-08-07T01:03:51;15.10;99.90
64689;DHT22;62504;46.070;14.492;2023-08-07T01:06:17;15.20;99.90
64689;DHT22;62504;46.070;14.492;2023-08-07T01:08:44;15.20;99.90
64689;DHT22;62504;46.070;14.492;2023-08-07T01:19:28;14.90;99.90
64689;DHT22;62504;46.070;14.492;2023-08-07T01:22:09;15.00;99.90
64689;DHT22;62504;46.070;14.492;2023-08-07T01:24:36;15.10;99.90
64689;DHT22;62504;46.070;14.492;2023-08-07T01:32:10;14.90;99.90
64689;DHT22;62504;46.070;14.492;2023-08-07T01:34:37;15.00;99.90
64689;DHT22;62504;46.070;14.492;2023-08-07T01:37:06;15.20;99.90
64689;DHT22;62504;46.070;14.492;2023-08-07T01:39:34;15.00;99.90
64689;DHT22;62504;46.070;14.492;2023-08-07T01:42:00;15.10;99.90
64689;DHT22;62504;46.070;14.492;2023-08-07T01:44:28;15.10;99.90
64689;DHT22;62504;46.070;14.492;2023-08-07T01:46:54;15.10;99.90
64689;DHT22;62504;46.070;14.492;2023-08-07T01:49:20;15.10;99.90
64689;DHT22;62504;46.070;14.492;2023-08-07T01:51:45;15.10;99.90
64689;DHT22;62504;46.070;14.492;2023-08-07T01:54:11;15.10;99.90
64689;DHT22;62504;46.070;14.492;2023-08-07T01:56:37;15.10;99.90
64689;DHT22;62504;46.070;14.492;2023-08-07T01:59:02;15.20;99.90
64689;DHT22;62504;46.070;14.492;2023-08-07T02:01:28;15.10;99.90
64689;DHT22;62504;46.070;14.492;2023-08-07T02:03:54;15.00;99.90
64689;DHT22;62504;46.070;14.492;2023-08-07T02:06:19;15.10;99.90
64689;DHT22;62504;46.070;14.492;2023-08-07T02:08:45;15.10;99.90
64689;DHT22;62504;46.070;14.492;2023-08-07T02:11:11;15.00;99.90
64689;DHT22;62504;46.070;14.492;2023-08-07T02:13:36;14.90;99.90
64689;DHT22;62504;46.070;14.492;2023-08-07T02:16:02;15.10;99.90
64689;DHT22;62504;46.070;14.492;2023-08-07T02:18:28;15.20;99.90
64689;DHT22;62504;46.070;14.492;2023-08-07T02:20:54;15.20;99.90
64689;DHT22;62504;46.070;14.492;2023-08-07T02:23:19;15.20;99.90
64689;DHT22;62504;46.070;14.492;2023-08-07T02:25:45;15.20;99.90
64689;DHT22;62504;46.070;14.492;2023-08-07T02:28:11;15.10;99.90
64689;DHT22;62504;46.070;14.492;2023-08-07T02:30:37;15.10;99.90
64689;DHT22;62504;46.070;14.492;2023-08-07T02:33:02;15.20;99.90
64689;DHT22;62504;46.070;14.492;2023-08-07T02:35:28;15.10;99.90
64689;DHT22;62504;46.070;14.492;2023-08-07T02:37:54;15.00;99.90
64689;DHT22;62504;46.070;14.492;2023-08-07T02:40:19;15.20;99.90
64689;DHT22;62504;46.070;14.492;2023-08-07T02:42:45;15.20;99.90
64689;DHT22;62504;46.070;14.492;2023-08-07T02:45:11;15.20;99.90
64689;DHT22;62504;46.070;14.492;2023-08-07T02:47:36;15.20;99.90
64689;DHT22;62504;46.070;14.492;2023-08-07T02:50:02;15.30;99.90
64689;DHT22;62504;46.070;14.492;2023-08-07T02:52:28;15.20;99.90
64689;DHT22;62504;46.070;14.492;2023-08-07T02:54:53;15.20;99.90
64689;DHT22;62504;46.070;14.492;2023-08-07T02:57:19;15.10;99.90
64689;DHT22;62504;46.070;14.492;2023-08-07T02:59:45;15.10;99.90
64689;DHT22;62504;46.070;14.492;2023-08-07T03:02:11;15.20;99.90
64689;DHT22;62504;46.070;14.492;2023-08-07T03:04:36;15.10;99.90
64689;DHT22;62504;46.070;14.492;2023-08-07T03:07:02;15.10;99.90
64689;DHT22;62504;46.070;14.492;2023-08-07T03:09:28;15.10;99.90
64689;DHT22;62504;46.070;14.492;2023-08-07T03:11:53;15.10;99.90
64689;DHT22;62504;46.070;14.492;2023-08-07T03:14:19;15.10;99.90
64689;DHT22;62504;46.070;14.492;2023-08-07T03:16:45;15.10;99.90
64689;DHT22;62504;46.070;14.492;2023-08-07T03:19:11;15.20;99.90
64689;DHT22;62504;46.070;14.492;2023-08-07T03:21:37;15.20;99.90
64689;DHT22;62504;46.070;14.492;2023-08-07T03:24:03;15.30;99.90
64689;DHT22;62504;46.070;14.492;2023-08-07T03:26:28;15.20;99.90
64689;DHT22;62504;46.070;14.492;2023-08-07T03:28:54;15.00;99.90
64689;DHT22;62504;46.070;14.492;2023-08-07T03:31:20;15.00;99.90
64689;DHT22;62504;46.070;14.492;2023-08-07T03:33:45;15.10;99.90
64689;DHT22;62504;46.070;14.492;2023-08-07T03:36:11;15.20;99.90
64689;DHT22;62504;46.070;14.492;2023-08-07T03:38:37;15.10;99.90
64689;DHT22;62504;46.070;14.492;2023-08-07T03:41:03;15.00;99.90
64689;DHT22;62504;46.070;14.492;2023-08-07T03:43:29;14.80;99.90
64689;DHT22;62504;46.070;14.492;2023-08-07T03:45:57;15.10;99.90
64689;DHT22;62504;46.070;14.492;2023-08-07T03:48:23;15.20;99.90
64689;DHT22;62504;46.070;14.492;2023-08-07T03:50:49;15.20;99.90
64689;DHT22;62504;46.070;14.492;2023-08-07T03:53:14;15.00;99.90
64689;DHT22;62504;46.070;14.492;2023-08-07T03:55:40;15.00;99.90
64689;DHT22;62504;46.070;14.492;2023-08-07T03:58:07;15.10;99.90
64689;DHT22;62504;46.070;14.492;2023-08-07T04:00:33;15.00;99.90
64689;DHT22;62504;46.070;14.492;2023-08-07T04:02:59;15.10;99.90
64689;DHT22;62504;46.070;14.492;2023-08-07T04:05:24;15.20;99.90
64689;DHT22;62504;46.070;14.492;2023-08-07T04:07:50;15.10;99.90
64689;DHT22;62504;46.070;14.492;2023-08-07T04:10:16;15.10;99.90
64689;DHT22;62504;46.070;14.492;2023-08-07T04:12:41;15.00;99.90
64689;DHT22;62504;46.070;14.492;2023-08-07T04:15:08;15.00;99.90
64689;DHT22;62504;46.070;14.492;2023-08-07T04:17:34;15.00;99.90
64689;DHT22;62504;46.070;14.492;2023-08-07T04:20:00;15.10;99.90
64689;DHT22;62504;46.070;14.492;2023-08-07T04:22:26;15.10;99.90
64689;DHT22;62504;46.070;14.492;2023-08-07T04:24:51;15.20;99.90
64689;DHT22;62504;46.070;14.492;2023-08-07T04:27:17;15.20;99.90
64689;DHT22;62504;46.070;14.492;2023-08-07T04:29:43;15.20;99.90
64689;DHT22;62504;46.070;14.492;2023-08-07T04:32:08;15.20;99.90
64689;DHT22;62504;46.070;14.492;2023-08-07T04:34:35;15.10;99.90
64689;DHT22;62504;46.070;14.492;2023-08-07T04:37:00;15.20;99.90
64689;DHT22;62504;46.070;14.492;2023-08-07T04:39:26;15.20;99.90
64689;DHT22;62504;46.070;14.492;2023-08-07T04:41:52;15.30;99.90
64689;DHT22;62504;46.070;14.492;2023-08-07T04:44:17;15.20;99.90
64689;DHT22;62504;46.070;14.492;2023-08-07T04:46:43;15.00;99.90
64689;DHT22;62504;46.070;14.492;2023-08-07T04:49:09;15.10;99.90
64689;DHT22;62504;46.070;14.492;2023-08-07T04:51:35;15.10;99.90
64689;DHT22;62504;46.070;14.492;2023-08-07T04:54:01;15.20;99.90
64689;DHT22;62504;46.070;14.492;2023-08-07T04:56:27;15.10;99.90
64689;DHT22;62504;46.070;14.492;2023-08-07T04:58:52;15.30;99.90
64689;DHT22;62504;46.070;14.492;2023-08-07T05:01:18;15.20;99.90
64689;DHT22;62504;46.070;14.492;2023-08-07T05:03:44;15.20;99.90
64689;DHT22;62504;46.070;14.492;2023-08-07T05:06:09;15.20;99.90
64689;DHT22;62504;46.070;14.492;2023-08-07T05:08:35;15.20;99.90
64689;DHT22;62504;46.070;14.492;2023-08-07T05:11:01;15.20;99.90
64689;DHT22;62504;46.070;14.492;2023-08-07T05:13:27;15.30;99.90
64689;DHT22;62504;46.070;14.492;2023-08-07T05:15:52;15.20;99.90
64689;DHT22;62504;46.070;14.492;2023-08-07T05:18:18;15.20;99.90
64689;DHT22;62504;46.070;14.492;2023-08-07T05:20:44;15.20;99.90
64689;DHT22;62504;46.070;14.492;2023-08-07T05:23:10;15.10;99.90
64689;DHT22;62504;46.070;14.492;2023-08-07T05:25:36;15.20;99.90
64689;DHT22;62504;46.070;14.492;2023-08-07T05:28:02;15.40;99.90
64689;DHT22;62504;46.070;14.492;2023-08-07T05:30:28;15.20;99.90
64689;DHT22;62504;46.070;14.492;2023-08-07T05:32:54;15.20;99.90
64689;DHT22;62504;46.070;14.492;2023-08-07T05:35:20;15.20;99.90
64689;DHT22;62504;46.070;14.492;2023-08-07T05:37:45;15.00;99.90
64689;DHT22;62504;46.070;14.492;2023-08-07T05:40:11;15.10;99.90
64689;DHT22;62504;46.070;14.492;2023-08-07T05:42:37;15.20;99.90
64689;DHT22;62504;46.070;14.492;2023-08-07T05:45:03;15.30;99.90
64689;DHT22;62504;46.070;14.492;2023-08-07T05:47:29;15.30;99.90
64689;DHT22;62504;46.070;14.492;2023-08-07T05:49:55;15.30;99.90
64689;DHT22;62504;46.070;14.492;2023-08-07T05:52:20;15.20;99.90
64689;DHT22;62504;46.070;14.492;2023-08-07T05:54:46;15.10;99.90
64689;DHT22;62504;46.070;14.492;2023-08-07T05:57:13;15.30;99.90
64689;DHT22;62504;46.070;14.492;2023-08-07T05:59:39;15.30;99.90
64689;DHT22;62504;46.070;14.492;2023-08-07T06:02:06;15.20;99.90
64689;DHT22;62504;46.070;14.492;2023-08-07T06:04:32;15.10;99.90
64689;DHT22;62504;46.070;14.492;2023-08-07T06:06:57;15.10;99.90
64689;DHT22;62504;46.070;14.492;2023-08-07T06:09:23;15.10;99.90
64689;DHT22;62504;46.070;14.492;2023-08-07T06:11:49;15.00;99.90
64689;DHT22;62504;46.070;14.492;2023-08-07T06:14:14;15.00;99.90
64689;DHT22;62504;46.070;14.492;2023-08-07T06:16:40;15.10;99.90
64689;DHT22;62504;46.070;14.492;2023-08-07T06:19:06;15.20;99.90
64689;DHT22;62504;46.070;14.492;2023-08-07T06:21:32;15.30;99.90
64689;DHT22;62504;46.070;14.492;2023-08-07T06:23:58;15.20;99.90
64689;DHT22;62504;46.070;14.492;2023-08-07T06:26:24;15.20;99.90
64689;DHT22;62504;46.070;14.492;2023-08-07T06:28:49;15.20;99.90
64689;DHT22;62504;46.070;14.492;2023-08-07T06:31:16;15.30;99.90
64689;DHT22;62504;46.070;14.492;2023-08-07T06:33:41;15.10;99.90
64689;DHT22;62504;46.070;14.492;2023-08-07T06:36:08;15.20;99.90
64689;DHT22;62504;46.070;14.492;2023-08-07T06:38:34;15.30;99.90
64689;DHT22;62504;46.070;14.492;2023-08-07T06:41:00;15.40;99.90
64689;DHT22;62504;46.070;14.492;2023-08-07T06:43:25;15.40;99.90
64689;DHT22;62504;46.070;14.492;2023-08-07T06:45:56;15.40;99.90
64689;DHT22;62504;46.070;14.492;2023-08-07T06:48:22;15.40;99.90
64689;DHT22;62504;46.070;14.492;2023-08-07T06:50:51;14.60;99.90
64689;DHT22;62504;46.070;14.492;2023-08-07T06:53:17;15.60;99.90
64689;DHT22;62504;46.070;14.492;2023-08-07T06:55:43;15.50;99.90
64689;DHT22;62504;46.070;14.492;2023-08-07T06:58:09;15.50;99.90
64689;DHT22;62504;46.070;14.492;2023-08-07T07:00:36;15.50;99.90
64689;DHT22;62504;46.070;14.492;2023-08-07T07:03:02;15.60;99.90
64689;DHT22;62504;46.070;14.492;2023-08-07T07:05:28;15.70;99.90
64689;DHT22;62504;46.070;14.492;2023-08-07T07:07:55;15.90;99.90
64689;DHT22;62504;46.070;14.492;2023-08-07T07:10:21;16.20;99.90
64689;DHT22;62504;46.070;14.492;2023-08-07T07:12:47;16.30;99.90
64689;DHT22;62504;46.070;14.492;2023-08-07T07:15:13;15.90;99.90
64689;DHT22;62504;46.070;14.492;2023-08-07T07:17:39;16.10;99.90
64689;DHT22;62504;46.070;14.492;2023-08-07T07:20:05;16.20;99.90
64689;DHT22;62504;46.070;14.492;2023-08-07T07:22:31;16.50;99.90
64689;DHT22;62504;46.070;14.492;2023-08-07T07:24:57;16.60;99.90
64689;DHT22;62504;46.070;14.492;2023-08-07T07:27:22;17.00;99.90
64689;DHT22;62504;46.070;14.492;2023-08-07T07:29:51;17.40;99.90
64689;DHT22;62504;46.070;14.492;2023-08-07T07:32:17;18.00;99.90
64689;DHT22;62504;46.070;14.492;2023-08-07T07:34:43;18.30;99.90
64689;DHT22;62504;46.070;14.492;2023-08-07T07:37:10;18.10;99.90
64689;DHT22;62504;46.070;14.492;2023-08-07T07:39:36;18.40;99.90
64689;DHT22;62504;46.070;14.492;2023-08-07T07:42:02;19.10;99.90
64689;DHT22;62504;46.070;14.492;2023-08-07T07:44:29;19.00;99.90
64689;DHT22;62504;46.070;14.492;2023-08-07T07:46:55;19.50;99.90
64689;DHT22;62504;46.070;14.492;2023-08-07T07:49:20;19.90;99.90
64689;DHT22;62504;46.070;14.492;2023-08-07T07:51:46;20.30;99.90
64689;DHT22;62504;46.070;14.492;2023-08-07T07:54:12;19.80;99.90
64689;DHT22;62504;46.070;14.492;2023-08-07T07:56:37;19.70;99.90
64689;DHT22;62504;46.070;14.492;2023-08-07T07:59:03;19.60;99.90
64689;DHT22;62504;46.070;14.492;2023-08-07T08:01:29;19.90;99.90
64689;DHT22;62504;46.070;14.492;2023-08-07T08:03:54;20.00;99.90
64689;DHT22;62504;46.070;14.492;2023-08-07T08:06:20;20.50;99.90
64689;DHT22;62504;46.070;14.492;2023-08-07T08:08:46;21.10;99.90
64689;DHT22;62504;46.070;14.492;2023-08-07T08:11:11;21.40;99.90
64689;DHT22;62504;46.070;14.492;2023-08-07T08:13:37;21.50;99.90
64689;DHT22;62504;46.070;14.492;2023-08-07T08:16:05;21.10;99.90
64689;DHT22;62504;46.070;14.492;2023-08-07T08:18:30;21.10;99.90
64689;DHT22;62504;46.070;14.492;2023-08-07T08:20:57;21.40;99.90
64689;DHT22;62504;46.070;14.492;2023-08-07T08:23:22;21.60;99.90
64689;DHT22;62504;46.070;14.492;2023-08-07T08:25:49;21.60;99.90
64689;DHT22;62504;46.070;14.492;2023-08-07T08:28:14;21.60;99.90
64689;DHT22;62504;46.070;14.492;2023-08-07T08:30:41;21.60;99.90
64689;DHT22;62504;46.070;14.492;2023-08-07T08:33:07;21.20;99.90
64689;DHT22;62504;46.070;14.492;2023-08-07T08:35:36;21.00;99.90
64689;DHT22;62504;46.070;14.492;2023-08-07T08:38:02;21.00;99.90
64689;DHT22;62504;46.070;14.492;2023-08-07T08:40:29;20.90;99.90
64689;DHT22;62504;46.070;14.492;2023-08-07T08:42:55;20.70;99.90
64689;DHT22;62504;46.070;14.492;2023-08-07T08:45:25;20.50;99.90
64689;DHT22;62504;46.070;14.492;2023-08-07T08:47:51;20.20;99.90
64689;DHT22;62504;46.070;14.492;2023-08-07T08:50:20;20.10;99.90
64689;DHT22;62504;46.070;14.492;2023-08-07T08:52:46;20.10;99.90
64689;DHT22;62504;46.070;14.492;2023-08-07T08:55:13;19.80;99.90
64689;DHT22;62504;46.070;14.492;2023-08-07T08:57:39;19.80;99.90
64689;DHT22;62504;46.070;14.492;2023-08-07T09:00:09;19.70;99.90
64689;DHT22;62504;46.070;14.492;2023-08-07T09:02:47;19.50;99.90
64689;DHT22;62504;46.070;14.492;2023-08-07T09:05:15;19.40;99.90
64689;DHT22;62504;46.070;14.492;2023-08-07T09:07:45;19.60;99.90
64689;DHT22;62504;46.070;14.492;2023-08-07T09:10:15;19.40;99.90
64689;DHT22;62504;46.070;14.492;2023-08-07T09:12:53;19.30;99.90
64689;DHT22;62504;46.070;14.492;2023-08-07T09:15:20;19.50;99.90
64689;DHT22;62504;46.070;14.492;2023-08-07T09:17:47;19.50;99.90
64689;DHT22;62504;46.070;14.492;2023-08-07T09:20:14;19.40;99.90
64689;DHT22;62504;46.070;14.492;2023-08-07T09:22:41;19.10;99.90
64689;DHT22;62504;46.070;14.492;2023-08-07T09:25:07;19.00;99.90
64689;DHT22;62504;46.070;14.492;2023-08-07T09:27:38;18.90;99.90
64689;DHT22;62504;46.070;14.492;2023-08-07T09:30:08;19.10;99.90
64689;DHT22;62504;46.070;14.492;2023-08-07T09:32:35;19.20;99.90
64689;DHT22;62504;46.070;14.492;2023-08-07T09:35:05;19.40;99.90
64689;DHT22;62504;46.070;14.492;2023-08-07T09:37:31;19.30;99.90
64689;DHT22;62504;46.070;14.492;2023-08-07T09:40:00;19.40;99.90
64689;DHT22;62504;46.070;14.492;2023-08-07T09:42:30;19.50;99.90
64689;DHT22;62504;46.070;14.492;2023-08-07T09:44:59;19.50;99.90
64689;DHT22;62504;46.070;14.492;2023-08-07T09:47:25;19.40;99.90
64689;DHT22;62504;46.070;14.492;2023-08-07T09:49:54;19.50;99.90
64689;DHT22;62504;46.070;14.492;2023-08-07T09:52:20;19.80;99.90
64689;DHT22;62504;46.070;14.492;2023-08-07T09:54:46;19.90;99.90
64689;DHT22;62504;46.070;14.492;2023-08-07T09:57:11;20.00;99.90
64689;DHT22;62504;46.070;14.492;2023-08-07T09:59:39;20.10;99.90
64689;DHT22;62504;46.070;14.492;2023-08-07T10:02:05;20.30;99.90
64689;DHT22;62504;46.070;14.492;2023-08-07T10:04:31;20.30;99.90
64689;DHT22;62504;46.070;14.492;2023-08-07T10:06:58;20.50;99.90
64689;DHT22;62504;46.070;14.492;2023-08-07T10:09:26;20.60;99.90
64689;DHT22;62504;46.070;14.492;2023-08-07T10:11:53;20.60;99.90
64689;DHT22;62504;46.070;14.492;2023-08-07T10:14:19;20.70;99.90
64689;DHT22;62504;46.070;14.492;2023-08-07T10:16:45;20.70;99.90
64689;DHT22;62504;46.070;14.492;2023-08-07T10:19:11;20.60;99.90
64689;DHT22;62504;46.070;14.492;2023-08-07T10:21:39;20.70;99.90
64689;DHT22;62504;46.070;14.492;2023-08-07T10:24:05;20.80;99.90
64689;DHT22;62504;46.070;14.492;2023-08-07T10:26:37;20.90;99.90
64689;DHT22;62504;46.070;14.492;2023-08-07T10:29:09;21.00;99.90
64689;DHT22;62504;46.070;14.492;2023-08-07T10:31:36;21.00;99.90
64689;DHT22;62504;46.070;14.492;2023-08-07T10:34:03;21.00;99.90
64689;DHT22;62504;46.070;14.492;2023-08-07T10:36:33;21.10;99.90
64689;DHT22;62504;46.070;14.492;2023-08-07T10:39:10;21.00;99.90
64689;DHT22;62504;46.070;14.492;2023-08-07T10:41:47;21.10;99.90
64689;DHT22;62504;46.070;14.492;2023-08-07T10:44:27;21.20;99.90
64689;DHT22;62504;46.070;14.492;2023-08-07T10:46:56;21.40;99.90
64689;DHT22;62504;46.070;14.492;2023-08-07T10:49:36;21.40;99.90
64689;DHT22;62504;46.070;14.492;2023-08-07T10:52:12;21.60;99.90
64689;DHT22;62504;46.070;14.492;2023-08-07T10:54:50;21.70;99.90
64689;DHT22;62504;46.070;14.492;2023-08-07T10:57:17;21.80;99.90
64689;DHT22;62504;46.070;14.492;2023-08-07T10:59:50;21.80;99.90
64689;DHT22;62504;46.070;14.492;2023-08-07T11:02:24;21.80;99.90
64689;DHT22;62504;46.070;14.492;2023-08-07T11:04:52;21.60;99.90
64689;DHT22;62504;46.070;14.492;2023-08-07T11:07:30;21.50;99.90
64689;DHT22;62504;46.070;14.492;2023-08-07T11:09:57;21.40;99.90
64689;DHT22;62504;46.070;14.492;2023-08-07T11:12:27;21.30;99.90
64689;DHT22;62504;46.070;14.492;2023-08-07T11:14:54;21.20;99.90
64689;DHT22;62504;46.070;14.492;2023-08-07T11:17:26;21.10;99.90
64689;DHT22;62504;46.070;14.492;2023-08-07T11:19:53;21.20;99.90
64689;DHT22;62504;46.070;14.492;2023-08-07T11:22:20;21.20;99.90
64689;DHT22;62504;46.070;14.492;2023-08-07T11:24:46;21.40;99.90
64689;DHT22;62504;46.070;14.492;2023-08-07T11:27:12;21.40;99.90
64689;DHT22;62504;46.070;14.492;2023-08-07T11:29:38;21.50;99.90
64689;DHT22;62504;46.070;14.492;2023-08-07T11:32:04;21.50;99.90
64689;DHT22;62504;46.070;14.492;2023-08-07T11:34:30;21.30;99.90
64689;DHT22;62504;46.070;14.492;2023-08-07T11:36:56;21.50;99.90
64689;DHT22;62504;46.070;14.492;2023-08-07T11:39:23;21.30;99.90
64689;DHT22;62504;46.070;14.492;2023-08-07T11:41:53;21.30;99.90
64689;DHT22;62504;46.070;14.492;2023-08-07T11:44:19;21.10;99.90
64689;DHT22;62504;46.070;14.492;2023-08-07T11:46:45;21.30;99.90
64689;DHT22;62504;46.070;14.492;2023-08-07T11:49:10;21.30;99.90
64689;DHT22;62504;46.070;14.492;2023-08-07T11:51:37;21.50;99.90
64689;DHT22;62504;46.070;14.492;2023-08-07T11:54:03;21.50;99.90
64689;DHT22;62504;46.070;14.492;2023-08-07T11:56:29;21.40;99.90
64689;DHT22;62504;46.070;14.492;2023-08-07T11:58:56;21.40;99.90
64689;DHT22;62504;46.070;14.492;2023-08-07T12:01:24;21.40;99.90
64689;DHT22;62504;46.070;14.492;2023-08-07T12:06:32;21.60;99.90
64689;DHT22;62504;46.070;14.492;2023-08-07T12:08:59;21.50;99.90
64689;DHT22;62504;46.070;14.492;2023-08-07T12:11:25;21.50;99.90
64689;DHT22;62504;46.070;14.492;2023-08-07T12:13:51;21.40;99.90
64689;DHT22;62504;46.070;14.492;2023-08-07T12:16:17;21.40;99.90
64689;DHT22;62504;46.070;14.492;2023-08-07T12:18:48;21.40;99.90
64689;DHT22;62504;46.070;14.492;2023-08-07T12:21:19;21.30;99.90
64689;DHT22;62504;46.070;14.492;2023-08-07T12:23:46;21.40;99.90
64689;DHT22;62504;46.070;14.492;2023-08-07T12:26:15;21.30;99.90
64689;DHT22;62504;46.070;14.492;2023-08-07T12:28:40;21.40;99.90
64689;DHT22;62504;46.070;14.492;2023-08-07T12:31:06;21.30;99.90
64689;DHT22;62504;46.070;14.492;2023-08-07T12:33:32;21.40;99.90
64689;DHT22;62504;46.070;14.492;2023-08-07T12:35:58;21.30;99.90
64689;DHT22;62504;46.070;14.492;2023-08-07T12:38:25;21.20;99.90
64689;DHT22;62504;46.070;14.492;2023-08-07T12:40:50;21.30;99.90
64689;DHT22;62504;46.070;14.492;2023-08-07T12:43:16;21.20;99.90
64689;DHT22;62504;46.070;14.492;2023-08-07T12:45:42;21.10;99.90
64689;DHT22;62504;46.070;14.492;2023-08-07T12:48:08;21.00;99.90
64689;DHT22;62504;46.070;14.492;2023-08-07T12:50:33;20.90;99.90
64689;DHT22;62504;46.070;14.492;2023-08-07T12:52:59;20.80;99.90
64689;DHT22;62504;46.070;14.492;2023-08-07T12:55:25;20.70;99.90
64689;DHT22;62504;46.070;14.492;2023-08-07T12:57:52;20.70;99.90
64689;DHT22;62504;46.070;14.492;2023-08-07T13:00:18;20.70;99.90
64689;DHT22;62504;46.070;14.492;2023-08-07T13:02:47;20.70;99.90
64689;DHT22;62504;46.070;14.492;2023-08-07T13:05:13;20.60;99.90
64689;DHT22;62504;46.070;14.492;2023-08-07T13:07:40;20.60;99.90
64689;DHT22;62504;46.070;14.492;2023-08-07T13:10:08;20.70;99.90
64689;DHT22;62504;46.070;14.492;2023-08-07T13:12:38;20.60;99.90
64689;DHT22;62504;46.070;14.492;2023-08-07T13:15:06;20.70;99.90
64689;DHT22;62504;46.070;14.492;2023-08-07T13:17:34;20.70;99.90
64689;DHT22;62504;46.070;14.492;2023-08-07T13:20:01;20.60;99.90
64689;DHT22;62504;46.070;14.492;2023-08-07T13:22:28;20.70;99.90
64689;DHT22;62504;46.070;14.492;2023-08-07T13:24:54;20.60;99.90
64689;DHT22;62504;46.070;14.492;2023-08-07T13:27:20;20.60;99.90
64689;DHT22;62504;46.070;14.492;2023-08-07T13:29:46;20.60;99.90
64689;DHT22;62504;46.070;14.492;2023-08-07T13:32:12;20.60;99.90
64689;DHT22;62504;46.070;14.492;2023-08-07T13:34:38;20.60;99.90
64689;DHT22;62504;46.070;14.492;2023-08-07T13:37:05;20.40;99.90
64689;DHT22;62504;46.070;14.492;2023-08-07T13:39:32;20.40;99.90
64689;DHT22;62504;46.070;14.492;2023-08-07T13:41:58;20.40;99.90
64689;DHT22;62504;46.070;14.492;2023-08-07T13:44:25;20.40;99.90
64689;DHT22;62504;46.070;14.492;2023-08-07T13:46:51;20.40;99.90
64689;DHT22;62504;46.070;14.492;2023-08-07T13:49:17;20.40;99.90
64689;DHT22;62504;46.070;14.492;2023-08-07T13:51:43;20.40;99.90
64689;DHT22;62504;46.070;14.492;2023-08-07T13:54:09;20.30;99.90
64689;DHT22;62504;46.070;14.492;2023-08-07T13:56:35;20.20;99.90
64689;DHT22;62504;46.070;14.492;2023-08-07T13:59:01;20.30;99.90
64689;DHT22;62504;46.070;14.492;2023-08-07T14:01:27;20.30;99.90
64689;DHT22;62504;46.070;14.492;2023-08-07T14:03:54;20.20;99.90
64689;DHT22;62504;46.070;14.492;2023-08-07T14:06:19;20.20;99.90
64689;DHT22;62504;46.070;14.492;2023-08-07T14:08:46;20.20;99.90
64689;DHT22;62504;46.070;14.492;2023-08-07T14:11:12;20.10;99.90
64689;DHT22;62504;46.070;14.492;2023-08-07T14:13:40;20.10;99.90
64689;DHT22;62504;46.070;14.492;2023-08-07T14:16:06;20.20;99.90
64689;DHT22;62504;46.070;14.492;2023-08-07T14:18:31;20.20;99.90
64689;DHT22;62504;46.070;14.492;2023-08-07T14:20:57;20.10;99.90
64689;DHT22;62504;46.070;14.492;2023-08-07T14:23:23;20.20;99.90
64689;DHT22;62504;46.070;14.492;2023-08-07T14:25:48;19.90;99.90
64689;DHT22;62504;46.070;14.492;2023-08-07T14:28:16;20.20;99.90
64689;DHT22;62504;46.070;14.492;2023-08-07T14:30:42;20.20;99.90
64689;DHT22;62504;46.070;14.492;2023-08-07T14:33:08;20.10;99.90
64689;DHT22;62504;46.070;14.492;2023-08-07T14:35:34;20.30;99.90
64689;DHT22;62504;46.070;14.492;2023-08-07T14:38:00;20.20;99.90
64689;DHT22;62504;46.070;14.492;2023-08-07T14:40:25;20.20;99.90
64689;DHT22;62504;46.070;14.492;2023-08-07T14:42:53;20.30;99.90
64689;DHT22;62504;46.070;14.492;2023-08-07T14:45:20;20.30;99.90
64689;DHT22;62504;46.070;14.492;2023-08-07T14:47:45;20.30;99.90
64689;DHT22;62504;46.070;14.492;2023-08-07T14:50:11;20.30;99.90
64689;DHT22;62504;46.070;14.492;2023-08-07T14:52:37;20.20;99.90
64689;DHT22;62504;46.070;14.492;2023-08-07T14:55:03;20.20;99.90
64689;DHT22;62504;46.070;14.492;2023-08-07T14:57:29;20.30;99.90
64689;DHT22;62504;46.070;14.492;2023-08-07T14:59:55;20.50;99.90
64689;DHT22;62504;46.070;14.492;2023-08-07T15:02:20;20.50;99.90
64689;DHT22;62504;46.070;14.492;2023-08-07T15:04:46;20.60;99.90
64689;DHT22;62504;46.070;14.492;2023-08-07T15:07:12;20.70;99.90
64689;DHT22;62504;46.070;14.492;2023-08-07T15:09:37;20.70;99.90
64689;DHT22;62504;46.070;14.492;2023-08-07T15:12:04;21.00;99.90
64689;DHT22;62504;46.070;14.492;2023-08-07T15:14:32;20.90;99.90
64689;DHT22;62504;46.070;14.492;2023-08-07T15:16:57;20.80;99.90
64689;DHT22;62504;46.070;14.492;2023-08-07T15:19:23;20.60;99.90
64689;DHT22;62504;46.070;14.492;2023-08-07T15:21:50;20.70;99.90
64689;DHT22;62504;46.070;14.492;2023-08-07T15:24:17;20.70;99.90
64689;DHT22;62504;46.070;14.492;2023-08-07T15:26:43;20.60;99.90